Time;durP1;ratioP1;P1;durP2;ratioP2;P2;SDS_P1;SDS_P2;PMS_P1;PMS_P2;Temp;Humidity;BMP_temperature;BMP_pressure;BME280_temperature;BME280_humidity;BME280_pressure;Samples;Min_cycle;Max_cycle;Signal;HPM_P1;HPM_P2
2023/08/15 00:00:45;;;;;;;5.28;3.97;;;;;;;;;;4968101;28;20202;-60
2023/08/15 00:03:12;;;;;;;5.28;3.30;;;;;;;;;;4968072;28;20660;-60
2023/08/15 00:05:41;;;;;;;3.80;3.35;;;;;;;;;;4968539;28;20215;-61
2023/08/15 00:08:08;;;;;;;4.15;3.78;;;;;;;;;;4968523;28;20236;-61
2023/08/15 00:10:35;;;;;;;4.85;2.90;;;;;;;;;;4968217;28;20759;-61
2023/08/15 00:13:03;;;;;;;2.83;2.67;;;;;;;;;;4968062;28;20202;-61
2023/08/15 00:15:31;;;;;;;5.85;3.30;;;;;;;;;;4967848;28;20281;-61
2023/08/15 00:17:58;;;;;;;3.90;3.50;;;;;;;;;;4968123;28;20210;-61
2023/08/15 00:20:25;;;;;;;6.78;3.10;;;;;;;;;;4967838;28;20207;-61
2023/08/15 00:22:53;;;;;;;4.13;3.83;;;;;;;;;;4967877;28;20207;-61
2023/08/15 00:25:20;;;;;;;5.88;3.75;;;;;;;;;;4967990;28;20218;-61
2023/08/15 00:27:47;;;;;;;4.90;3.30;;;;;;;;;;4967788;28;20237;-61
2023/08/15 00:30:14;;;;;;;7.80;3.22;;;;;;;;;;4967985;28;20246;-61
2023/08/15 00:32:41;;;;;;;4.25;3.80;;;;;;;;;;4967274;28;20206;-61
2023/08/15 00:35:11;;;;;;;8.63;4.10;;;;;;;;;;4967963;28;20229;-60
2023/08/15 00:37:39;;;;;;;6.05;3.80;;;;;;;;;;4967811;28;20217;-61
2023/08/15 00:40:08;;;;;;;4.80;3.63;;;;;;;;;;4968120;28;20214;-61
2023/08/15 00:42:35;;;;;;;4.10;3.83;;;;;;;;;;4967142;28;20240;-61
2023/08/15 00:45:02;;;;;;;4.03;3.65;;;;;;;;;;4967852;28;20611;-61
2023/08/15 00:47:30;;;;;;;4.18;3.80;;;;;;;;;;4967641;28;20222;-61
2023/08/15 00:49:57;;;;;;;5.45;3.88;;;;;;;;;;4967722;28;20246;-64
2023/08/15 00:52:24;;;;;;;11.18;4.05;;;;;;;;;;4967217;28;20210;-61
2023/08/15 00:54:51;;;;;;;7.70;3.75;;;;;;;;;;4967481;28;20633;-61
2023/08/15 00:57:20;;;;;;;4.78;3.45;;;;;;;;;;4967688;28;20627;-61
2023/08/15 00:59:47;;;;;;;6.78;3.67;;;;;;;;;;4964849;28;20205;-60
2023/08/15 01:02:15;;;;;;;3.58;3.38;;;;;;;;;;4964563;28;20209;-61
2023/08/15 01:04:42;;;;;;;7.30;4.10;;;;;;;;;;4966361;28;20210;-61
2023/08/15 01:07:09;;;;;;;4.82;4.35;;;;;;;;;;4965534;28;20297;-61
2023/08/15 01:09:36;;;;;;;5.13;4.38;;;;;;;;;;4967491;28;20305;-60
2023/08/15 01:12:08;;;;;;;6.45;5.10;;;;;;;;;;4967205;28;20210;-60
2023/08/15 01:14:38;;;;;;;4.85;4.35;;;;;;;;;;4967258;28;20266;-60
2023/08/15 01:17:06;;;;;;;3.88;3.67;;;;;;;;;;4967310;28;20222;-61
2023/08/15 01:19:36;;;;;;;4.47;4.13;;;;;;;;;;4967367;28;20209;-60
2023/08/15 01:22:05;;;;;;;11.10;5.00;;;;;;;;;;4967044;28;20218;-61
2023/08/15 01:24:34;;;;;;;4.45;4.15;;;;;;;;;;4964068;28;20207;-61
2023/08/15 01:27:01;;;;;;;4.32;4.03;;;;;;;;;;4948148;29;20222;-61
2023/08/15 01:29:28;;;;;;;7.68;4.15;;;;;;;;;;4948036;29;20249;-61
2023/08/15 01:31:56;;;;;;;7.18;4.95;;;;;;;;;;4957209;28;20214;-61
2023/08/15 01:34:26;;;;;;;5.30;4.90;;;;;;;;;;4966709;28;20213;-60
2023/08/15 01:36:55;;;;;;;5.05;4.45;;;;;;;;;;4967376;28;20680;-61
2023/08/15 01:39:24;;;;;;;5.80;4.35;;;;;;;;;;4967248;28;20202;-61
2023/08/15 01:41:54;;;;;;;6.70;4.47;;;;;;;;;;4966820;28;20696;-61
2023/08/15 01:44:22;;;;;;;6.72;4.47;;;;;;;;;;4967181;28;20214;-62
2023/08/15 01:46:49;;;;;;;8.48;4.40;;;;;;;;;;4967206;28;20214;-62
2023/08/15 01:49:16;;;;;;;4.45;4.15;;;;;;;;;;4967111;28;20222;-61
2023/08/15 01:51:43;;;;;;;6.60;4.50;;;;;;;;;;4967108;28;20226;-62
2023/08/15 01:54:10;;;;;;;6.60;4.63;;;;;;;;;;4966566;28;20217;-62
2023/08/15 01:56:37;;;;;;;5.03;4.30;;;;;;;;;;4967449;28;20218;-62
2023/08/15 01:59:06;;;;;;;6.80;4.38;;;;;;;;;;4967411;28;20217;-62
2023/08/15 02:01:33;;;;;;;5.18;4.50;;;;;;;;;;4967101;28;20206;-61
2023/08/15 02:04:00;;;;;;;7.88;4.63;;;;;;;;;;4966272;28;20214;-61
2023/08/15 02:06:27;;;;;;;5.72;4.60;;;;;;;;;;4967032;28;20222;-61
2023/08/15 02:08:54;;;;;;;4.30;3.80;;;;;;;;;;4967250;28;20236;-61
2023/08/15 02:11:21;;;;;;;6.75;4.25;;;;;;;;;;4966811;28;20716;-61
2023/08/15 02:13:48;;;;;;;7.00;4.32;;;;;;;;;;4966885;28;20215;-60
2023/08/15 02:16:18;;;;;;;4.93;4.30;;;;;;;;;;4967081;28;20215;-60
2023/08/15 02:18:45;;;;;;;6.45;4.40;;;;;;;;;;4967109;28;20222;-61
2023/08/15 02:21:12;;;;;;;7.43;4.28;;;;;;;;;;4969063;28;20202;-60
2023/08/15 02:23:39;;;;;;;6.72;4.40;;;;;;;;;;4969973;28;20218;-60
2023/08/15 02:26:06;;;;;;;7.00;4.60;;;;;;;;;;4970453;28;20225;-60
2023/08/15 02:28:33;;;;;;;4.57;4.05;;;;;;;;;;4970043;28;20230;-60
2023/08/15 02:31:01;;;;;;;5.40;4.18;;;;;;;;;;4970276;28;20720;-61
2023/08/15 02:33:29;;;;;;;6.28;4.63;;;;;;;;;;4970043;28;20213;-60
2023/08/15 02:35:56;;;;;;;5.22;4.72;;;;;;;;;;4969633;28;20217;-60
2023/08/15 02:38:23;;;;;;;7.90;4.63;;;;;;;;;;4970094;28;20739;-61
2023/08/15 02:40:51;;;;;;;4.20;3.90;;;;;;;;;;4970631;28;20575;-61
2023/08/15 02:43:18;;;;;;;4.72;4.25;;;;;;;;;;4969906;28;20206;-61
2023/08/15 02:45:45;;;;;;;5.38;4.65;;;;;;;;;;4969783;28;20225;-61
2023/08/15 02:48:12;;;;;;;6.13;4.82;;;;;;;;;;4970076;28;20206;-61
2023/08/15 02:50:41;;;;;;;4.57;4.25;;;;;;;;;;4970159;28;20222;-61
2023/08/15 02:53:08;;;;;;;6.25;4.65;;;;;;;;;;4970157;28;20276;-61
2023/08/15 02:55:35;;;;;;;4.80;4.38;;;;;;;;;;4970061;28;20214;-61
2023/08/15 02:58:02;;;;;;;5.18;4.55;;;;;;;;;;4969799;28;20214;-61
2023/08/15 03:00:29;;;;;;;4.45;4.15;;;;;;;;;;4970125;28;20248;-61
2023/08/15 03:02:56;;;;;;;4.90;4.45;;;;;;;;;;4969599;28;20218;-61
2023/08/15 03:05:23;;;;;;;5.53;4.18;;;;;;;;;;4969809;28;20888;-61
2023/08/15 03:07:52;;;;;;;4.93;4.53;;;;;;;;;;4966303;28;20213;-61
2023/08/15 03:10:19;;;;;;;6.43;4.78;;;;;;;;;;4969087;28;20632;-61
2023/08/15 03:12:46;;;;;;;9.75;5.43;;;;;;;;;;4969864;28;20261;-61
2023/08/15 03:15:13;;;;;;;6.70;5.00;;;;;;;;;;4969659;28;20222;-61
2023/08/15 03:17:40;;;;;;;5.25;4.60;;;;;;;;;;4969379;28;20696;-61
2023/08/15 03:20:09;;;;;;;7.15;5.07;;;;;;;;;;4969350;28;20214;-61
2023/08/15 03:22:36;;;;;;;13.05;6.22;;;;;;;;;;4979103;28;20210;-61
2023/08/15 03:25:04;;;;;;;5.63;4.95;;;;;;;;;;4988543;28;20730;-61
2023/08/15 03:27:31;;;;;;;6.47;5.90;;;;;;;;;;4981022;28;20222;-61
2023/08/15 03:29:58;;;;;;;6.20;5.70;;;;;;;;;;4968861;28;20249;-61
2023/08/15 03:32:25;;;;;;;10.20;6.20;;;;;;;;;;4968173;28;20218;-61
2023/08/15 03:34:52;;;;;;;9.63;5.90;;;;;;;;;;4968761;28;20215;-61
2023/08/15 03:37:19;;;;;;;10.30;6.18;;;;;;;;;;4969170;28;20202;-61
2023/08/15 03:39:46;;;;;;;10.57;6.30;;;;;;;;;;4968863;28;20218;-60
2023/08/15 03:42:15;;;;;;;6.68;5.95;;;;;;;;;;4969102;28;20213;-61
2023/08/15 03:44:42;;;;;;;7.55;5.20;;;;;;;;;;4968430;28;20217;-61
2023/08/15 03:47:09;;;;;;;9.40;6.40;;;;;;;;;;4968522;28;20198;-60
2023/08/15 03:49:37;;;;;;;7.90;6.50;;;;;;;;;;4968962;28;20210;-59
2023/08/15 03:52:05;;;;;;;9.98;6.85;;;;;;;;;;4968820;28;20226;-60
2023/08/15 03:54:32;;;;;;;7.47;6.15;;;;;;;;;;4968917;28;20245;-60
2023/08/15 03:56:59;;;;;;;8.90;5.57;;;;;;;;;;4968303;28;20225;-60
2023/08/15 03:59:27;;;;;;;6.60;5.95;;;;;;;;;;4968787;28;20206;-60
2023/08/15 04:01:54;;;;;;;8.23;7.13;;;;;;;;;;4967099;28;20216;-60
2023/08/15 04:04:21;;;;;;;6.93;5.25;;;;;;;;;;4968104;28;20206;-60
2023/08/15 04:06:48;;;;;;;8.30;6.90;;;;;;;;;;4968296;28;20214;-60
2023/08/15 04:09:16;;;;;;;6.03;5.47;;;;;;;;;;4967974;28;20214;-60
2023/08/15 04:11:43;;;;;;;6.55;5.95;;;;;;;;;;4967869;28;20620;-59
2023/08/15 04:14:10;;;;;;;10.02;6.20;;;;;;;;;;4968340;28;20214;-62
2023/08/15 04:16:38;;;;;;;10.32;6.43;;;;;;;;;;4967044;28;20217;-59
2023/08/15 04:19:05;;;;;;;7.47;6.70;;;;;;;;;;4968176;28;20661;-59
2023/08/15 04:21:32;;;;;;;7.78;6.82;;;;;;;;;;4968743;28;20217;-59
2023/08/15 04:24:00;;;;;;;11.00;5.35;;;;;;;;;;4968731;28;20302;-60
2023/08/15 04:26:27;;;;;;;9.25;6.38;;;;;;;;;;4967779;28;20228;-59
2023/08/15 04:28:54;;;;;;;6.43;5.72;;;;;;;;;;4965531;28;20586;-60
2023/08/15 04:31:21;;;;;;;14.15;5.82;;;;;;;;;;4968224;28;20245;-60
2023/08/15 04:33:49;;;;;;;9.80;5.75;;;;;;;;;;4967858;28;20211;-60
2023/08/15 04:36:16;;;;;;;8.00;5.70;;;;;;;;;;4967593;28;20583;-60
2023/08/15 04:38:43;;;;;;;6.10;5.50;;;;;;;;;;4967863;28;20214;-59
2023/08/15 04:41:10;;;;;;;8.50;5.97;;;;;;;;;;4967728;28;20206;-59
2023/08/15 04:43:37;;;;;;;7.97;6.03;;;;;;;;;;4968090;28;20203;-59
2023/08/15 04:46:04;;;;;;;4.97;4.57;;;;;;;;;;4968020;28;20237;-60
2023/08/15 04:48:31;;;;;;;3.20;3.05;;;;;;;;;;4968044;28;20210;-60
2023/08/15 04:50:59;;;;;;;7.72;3.85;;;;;;;;;;4968060;28;20233;-60
2023/08/15 04:53:26;;;;;;;3.42;3.10;;;;;;;;;;4968496;28;20210;-60
2023/08/15 04:55:54;;;;;;;3.90;3.40;;;;;;;;;;4967956;28;20210;-60
2023/08/15 04:58:21;;;;;;;3.45;3.20;;;;;;;;;;4965877;28;20221;-59
2023/08/15 05:00:48;;;;;;;3.00;2.90;;;;;;;;;;4964772;28;20614;-62
2023/08/15 05:03:15;;;;;;;5.00;3.05;;;;;;;;;;4967449;28;20217;-60
2023/08/15 05:05:42;;;;;;;4.13;2.83;;;;;;;;;;4967770;28;20379;-63
2023/08/15 05:08:12;;;;;;;6.10;2.97;;;;;;;;;;4967979;28;20233;-60
2023/08/15 05:10:39;;;;;;;3.55;2.95;;;;;;;;;;4967686;28;20222;-60
2023/08/15 05:13:06;;;;;;;3.05;2.47;;;;;;;;;;4967875;28;20221;-60
2023/08/15 05:15:33;;;;;;;2.90;2.80;;;;;;;;;;4967641;28;20202;-60
2023/08/15 05:18:00;;;;;;;3.20;3.00;;;;;;;;;;4962076;28;20211;-60
2023/08/15 05:20:27;;;;;;;3.13;2.92;;;;;;;;;;4963769;28;20213;-60
2023/08/15 05:22:54;;;;;;;3.55;3.30;;;;;;;;;;4967309;28;20207;-60
2023/08/15 05:25:22;;;;;;;6.05;3.10;;;;;;;;;;4950842;28;20211;-60
2023/08/15 05:27:50;;;;;;;3.70;3.20;;;;;;;;;;4964224;28;20226;-60
2023/08/15 05:30:17;;;;;;;5.30;3.33;;;;;;;;;;4967805;28;20340;-61
2023/08/15 05:32:44;;;;;;;3.25;3.05;;;;;;;;;;4967274;28;20234;-61
2023/08/15 05:35:11;;;;;;;4.53;3.08;;;;;;;;;;4967727;28;20210;-64
2023/08/15 05:37:39;;;;;;;4.78;3.28;;;;;;;;;;4967767;28;20211;-64
2023/08/15 05:40:06;;;;;;;3.17;2.97;;;;;;;;;;4967846;28;20586;-63
2023/08/15 05:42:34;;;;;;;6.18;3.22;;;;;;;;;;4967387;28;20233;-63
2023/08/15 05:45:01;;;;;;;4.45;3.65;;;;;;;;;;4967862;28;20210;-63
2023/08/15 05:47:28;;;;;;;4.45;3.42;;;;;;;;;;4967834;28;20210;-66
2023/08/15 05:49:55;;;;;;;4.72;3.60;;;;;;;;;;4967046;28;20215;-64
2023/08/15 05:52:23;;;;;;;5.28;3.55;;;;;;;;;;4967023;28;20234;-64
2023/08/15 05:54:50;;;;;;;5.72;3.50;;;;;;;;;;4963443;28;20221;-64
2023/08/15 05:57:17;;;;;;;5.82;3.60;;;;;;;;;;4958044;28;20198;-64
2023/08/15 05:59:45;;;;;;;3.65;3.40;;;;;;;;;;4960051;28;20292;-64
2023/08/15 06:02:12;;;;;;;3.40;3.20;;;;;;;;;;4959192;28;20225;-63
2023/08/15 06:04:39;;;;;;;7.07;3.80;;;;;;;;;;4959483;28;20583;-64
2023/08/15 06:07:06;;;;;;;9.38;3.97;;;;;;;;;;4959828;28;20549;-64
2023/08/15 06:09:33;;;;;;;4.40;4.05;;;;;;;;;;4957863;28;20577;-64
2023/08/15 06:12:01;;;;;;;3.63;3.17;;;;;;;;;;4956968;28;20230;-65
2023/08/15 06:14:28;;;;;;;4.30;3.83;;;;;;;;;;4958102;28;20214;-65
2023/08/15 06:16:56;;;;;;;4.80;3.75;;;;;;;;;;4959939;28;20222;-65
2023/08/15 06:19:23;;;;;;;4.15;3.83;;;;;;;;;;4959283;28;20226;-65
2023/08/15 06:21:50;;;;;;;4.05;3.78;;;;;;;;;;4957935;28;20199;-65
2023/08/15 06:24:17;;;;;;;3.85;3.55;;;;;;;;;;4959459;28;20210;-65
2023/08/15 06:26:44;;;;;;;4.93;4.40;;;;;;;;;;4959445;28;20211;-65
2023/08/15 06:29:11;;;;;;;4.03;3.83;;;;;;;;;;4957436;28;20234;-65
2023/08/15 06:31:38;;;;;;;4.20;4.00;;;;;;;;;;4960361;28;20227;-64
2023/08/15 06:34:07;;;;;;;4.95;4.35;;;;;;;;;;4957947;28;20226;-65
2023/08/15 06:36:34;;;;;;;4.07;3.75;;;;;;;;;;4957833;28;20232;-63
2023/08/15 06:39:01;;;;;;;4.40;4.00;;;;;;;;;;4958636;28;20221;-63
2023/08/15 06:41:28;;;;;;;6.63;3.92;;;;;;;;;;4959188;28;20210;-63
2023/08/15 06:43:55;;;;;;;3.97;3.58;;;;;;;;;;4957228;28;20211;-65
2023/08/15 06:46:22;;;;;;;5.38;3.58;;;;;;;;;;4954888;28;20214;-63
2023/08/15 06:48:49;;;;;;;3.25;3.15;;;;;;;;;;4950513;28;20232;-63
2023/08/15 06:51:17;;;;;;;4.50;3.22;;;;;;;;;;4969266;28;20703;-63
2023/08/15 06:53:45;;;;;;;3.42;3.13;;;;;;;;;;4969101;28;20203;-63
2023/08/15 06:56:12;;;;;;;3.22;3.10;;;;;;;;;;4968921;28;20214;-63
2023/08/15 06:58:39;;;;;;;3.60;3.30;;;;;;;;;;4969305;28;20237;-63
2023/08/15 07:01:06;;;;;;;7.10;2.60;;;;;;;;;;4967334;28;20214;-63
2023/08/15 07:03:33;;;;;;;4.57;3.05;;;;;;;;;;4969867;28;20308;-60
2023/08/15 07:06:01;;;;;;;4.65;3.13;;;;;;;;;;4969668;28;20241;-60
2023/08/15 07:08:29;;;;;;;2.75;2.55;;;;;;;;;;4969861;28;20211;-62
2023/08/15 07:10:56;;;;;;;3.33;2.60;;;;;;;;;;4968879;28;20263;-62
2023/08/15 07:13:23;;;;;;;2.67;2.58;;;;;;;;;;4969275;28;20366;-62
2023/08/15 07:15:54;;;;;;;4.47;2.88;;;;;;;;;;4969673;28;20206;-62
2023/08/15 07:18:21;;;;;;;2.50;2.30;;;;;;;;;;4969349;28;20653;-61
2023/08/15 07:20:49;;;;;;;3.10;2.83;;;;;;;;;;4968516;28;20218;-61
2023/08/15 07:23:16;;;;;;;2.38;2.30;;;;;;;;;;4965921;28;20210;-62
2023/08/15 07:25:44;;;;;;;2.22;2.10;;;;;;;;;;4969218;28;20304;-62
2023/08/15 07:28:12;;;;;;;2.45;2.25;;;;;;;;;;4966918;28;20241;-62
2023/08/15 07:30:41;;;;;;;2.35;2.22;;;;;;;;;;4968649;28;20325;-62
2023/08/15 07:33:08;;;;;;;4.95;2.30;;;;;;;;;;4947777;28;20227;-63
2023/08/15 07:35:35;;;;;;;2.55;2.20;;;;;;;;;;4957687;28;20850;-62
2023/08/15 07:38:03;;;;;;;2.40;2.30;;;;;;;;;;4969059;28;20206;-62
2023/08/15 07:40:30;;;;;;;2.35;2.08;;;;;;;;;;4969081;28;20766;-62
2023/08/15 07:42:58;;;;;;;2.42;2.30;;;;;;;;;;4968620;28;20210;-63
2023/08/15 07:45:25;;;;;;;4.30;2.38;;;;;;;;;;4968720;28;20210;-63
2023/08/15 07:47:53;;;;;;;2.15;1.95;;;;;;;;;;4969091;28;20210;-63
2023/08/15 07:50:22;;;;;;;4.07;1.90;;;;;;;;;;4968856;28;20210;-61
2023/08/15 07:52:49;;;;;;;4.60;1.90;;;;;;;;;;4968378;28;20264;-62
2023/08/15 07:55:16;;;;;;;2.53;2.33;;;;;;;;;;4968379;28;20482;-62
2023/08/15 07:57:44;;;;;;;2.55;2.10;;;;;;;;;;4968586;28;20716;-62
2023/08/15 08:00:13;;;;;;;2.28;2.03;;;;;;;;;;4968305;28;20219;-62
2023/08/15 08:02:40;;;;;;;2.05;1.80;;;;;;;;;;4968350;28;20761;-62
2023/08/15 08:05:09;;;;;;;1.67;1.60;;;;;;;;;;4968071;28;20225;-62
2023/08/15 08:07:36;;;;;;;1.40;1.40;;;;;;;;;;4968403;28;20210;-62
2023/08/15 08:10:04;;;;;;;1.73;1.60;;;;;;;;;;4965347;28;20218;-61
2023/08/15 08:12:31;;;;;;;3.17;1.60;;;;;;;;;;4964151;28;20228;-61
2023/08/15 08:14:59;;;;;;;1.48;1.38;;;;;;;;;;4965434;28;20673;-61
2023/08/15 08:17:27;;;;;;;1.67;1.58;;;;;;;;;;4967745;28;20218;-61
2023/08/15 08:19:54;;;;;;;1.83;1.75;;;;;;;;;;4967825;28;20287;-61
2023/08/15 08:22:22;;;;;;;1.92;1.77;;;;;;;;;;4967918;28;20297;-61
2023/08/15 08:24:49;;;;;;;2.40;1.90;;;;;;;;;;4967863;28;20210;-61
2023/08/15 08:27:16;;;;;;;2.10;1.85;;;;;;;;;;4967948;28;20264;-62
2023/08/15 08:29:44;;;;;;;1.77;1.73;;;;;;;;;;4948593;28;20261;-61
2023/08/15 08:32:11;;;;;;;1.90;1.90;;;;;;;;;;4960379;28;20242;-61
2023/08/15 08:34:39;;;;;;;1.58;1.58;;;;;;;;;;4967771;28;20644;-61
2023/08/15 08:37:06;;;;;;;3.22;1.60;;;;;;;;;;4967693;28;20218;-62
2023/08/15 08:39:33;;;;;;;5.78;1.98;;;;;;;;;;4967752;28;20218;-61
2023/08/15 08:42:01;;;;;;;1.50;1.50;;;;;;;;;;4967734;28;20558;-61
2023/08/15 08:44:29;;;;;;;1.30;1.20;;;;;;;;;;4967895;28;20242;-61
2023/08/15 08:46:56;;;;;;;1.90;1.80;;;;;;;;;;4967763;28;20218;-61
2023/08/15 08:49:24;;;;;;;2.25;1.50;;;;;;;;;;4967549;28;20210;-61
2023/08/15 08:51:53;;;;;;;2.00;1.90;;;;;;;;;;4967303;28;20214;-61
2023/08/15 08:54:20;;;;;;;2.38;1.40;;;;;;;;;;4967350;28;20198;-61
2023/08/15 08:56:49;;;;;;;2.17;1.60;;;;;;;;;;4967397;28;20202;-61
2023/08/15 08:59:17;;;;;;;4.13;1.83;;;;;;;;;;4963399;28;20218;-62
2023/08/15 09:01:45;;;;;;;3.17;1.55;;;;;;;;;;4963559;28;20488;-61
2023/08/15 09:04:12;;;;;;;3.20;1.70;;;;;;;;;;4965801;28;20293;-61
2023/08/15 09:06:39;;;;;;;2.13;1.80;;;;;;;;;;4966685;28;20210;-61
2023/08/15 09:09:08;;;;;;;1.63;1.60;;;;;;;;;;4966905;28;20211;-62
2023/08/15 09:11:35;;;;;;;2.38;1.58;;;;;;;;;;4966729;28;20310;-61
2023/08/15 09:14:03;;;;;;;1.92;1.83;;;;;;;;;;4966630;28;20229;-61
2023/08/15 09:16:30;;;;;;;3.67;1.58;;;;;;;;;;4961779;28;20249;-62
2023/08/15 09:18:57;;;;;;;1.40;1.40;;;;;;;;;;4966344;28;20210;-63
2023/08/15 09:21:28;;;;;;;1.40;1.40;;;;;;;;;;4966982;28;20565;-62
2023/08/15 09:23:55;;;;;;;1.65;1.65;;;;;;;;;;4967084;28;20210;-62
2023/08/15 09:26:23;;;;;;;1.65;1.50;;;;;;;;;;4966703;28;20199;-62
2023/08/15 09:28:51;;;;;;;2.35;1.63;;;;;;;;;;4966622;28;20226;-62
2023/08/15 09:31:18;;;;;;;1.60;1.50;;;;;;;;;;4969382;28;20213;-62
2023/08/15 09:33:45;;;;;;;1.73;1.50;;;;;;;;;;4967416;28;20300;-61
2023/08/15 09:36:12;;;;;;;1.65;1.38;;;;;;;;;;4969092;28;20217;-61
2023/08/15 09:38:39;;;;;;;1.52;1.52;;;;;;;;;;4969512;28;20202;-61
2023/08/15 09:41:06;;;;;;;1.55;1.48;;;;;;;;;;4970577;28;20218;-60
2023/08/15 09:43:35;;;;;;;1.40;1.40;;;;;;;;;;4970870;28;20205;-61
2023/08/15 09:46:02;;;;;;;1.23;1.23;;;;;;;;;;4970554;28;20209;-60
2023/08/15 09:48:30;;;;;;;1.60;1.50;;;;;;;;;;4970693;28;20206;-60
2023/08/15 09:50:57;;;;;;;1.40;1.40;;;;;;;;;;4970272;28;20202;-60
2023/08/15 09:53:25;;;;;;;1.98;1.88;;;;;;;;;;4970365;28;20229;-60
2023/08/15 09:55:53;;;;;;;1.95;1.45;;;;;;;;;;4970552;28;20224;-61
2023/08/15 09:58:22;;;;;;;3.42;1.50;;;;;;;;;;4970333;28;20267;-60
2023/08/15 10:00:51;;;;;;;1.50;1.50;;;;;;;;;;4970426;28;20212;-60
2023/08/15 10:03:19;;;;;;;1.73;1.63;;;;;;;;;;4970432;28;20214;-61
2023/08/15 10:05:48;;;;;;;1.95;1.85;;;;;;;;;;4970276;28;20209;-61
2023/08/15 10:08:16;;;;;;;1.90;1.80;;;;;;;;;;4970239;28;20210;-61
2023/08/15 10:10:43;;;;;;;4.57;1.50;;;;;;;;;;4970378;28;20209;-61
2023/08/15 10:13:10;;;;;;;4.43;2.33;;;;;;;;;;4970202;28;20225;-61
2023/08/15 10:15:38;;;;;;;1.50;1.50;;;;;;;;;;4970471;28;20212;-62
2023/08/15 10:18:07;;;;;;;1.67;1.58;;;;;;;;;;4970038;28;20240;-62
2023/08/15 10:20:38;;;;;;;1.35;1.33;;;;;;;;;;4970086;28;20221;-62
2023/08/15 10:23:07;;;;;;;1.65;1.55;;;;;;;;;;4970192;28;20213;-62
2023/08/15 10:25:35;;;;;;;1.52;1.40;;;;;;;;;;4970642;28;20260;-62
2023/08/15 10:28:05;;;;;;;1.48;1.38;;;;;;;;;;4969785;28;20288;-62
2023/08/15 10:30:33;;;;;;;1.48;1.38;;;;;;;;;;4952161;28;20238;-62
2023/08/15 10:33:01;;;;;;;1.35;1.30;;;;;;;;;;4969085;28;20237;-61
2023/08/15 10:35:34;;;;;;;1.30;1.30;;;;;;;;;;4970041;28;20739;-61
2023/08/15 10:38:13;;;;;;;3.17;1.38;;;;;;;;;;4970216;28;20304;-61
2023/08/15 10:40:41;;;;;;;1.33;1.33;;;;;;;;;;4969762;28;20594;-61
2023/08/15 10:43:12;;;;;;;1.40;1.30;;;;;;;;;;4969907;28;20925;-62
2023/08/15 10:45:43;;;;;;;1.30;1.30;;;;;;;;;;4960772;28;20669;-61
2023/08/15 10:48:10;;;;;;;1.27;1.27;;;;;;;;;;4960942;28;20217;-61
2023/08/15 10:50:44;;;;;;;2.88;1.48;;;;;;;;;;4969206;28;20214;-61
2023/08/15 10:53:11;;;;;;;1.38;1.38;;;;;;;;;;4969907;28;20241;-61
2023/08/15 10:55:38;;;;;;;1.90;1.42;;;;;;;;;;4969798;28;20206;-61
2023/08/15 10:58:07;;;;;;;2.00;1.83;;;;;;;;;;4955982;28;20736;-62
2023/08/15 11:03:38;;;;;;;2.90;2.13;;;;;;;;;;4965291;28;20201;-61
2023/08/15 11:06:11;;;;;;;1.77;1.67;;;;;;;;;;4964717;28;20611;-61
2023/08/15 11:08:41;;;;;;;2.17;1.92;;;;;;;;;;4954990;28;20336;-60
2023/08/15 11:11:08;;;;;;;2.10;2.00;;;;;;;;;;4969406;28;20217;-61
2023/08/15 11:13:37;;;;;;;2.42;2.05;;;;;;;;;;4969236;28;20284;-60
2023/08/15 11:16:04;;;;;;;4.50;2.30;;;;;;;;;;4952736;28;20298;-60
2023/08/15 11:18:31;;;;;;;5.40;2.40;;;;;;;;;;4959277;28;20477;-64
2023/08/15 11:20:58;;;;;;;3.42;2.28;;;;;;;;;;4963108;28;20581;-65
2023/08/15 11:23:28;;;;;;;3.78;2.10;;;;;;;;;;4951187;28;20219;-64
2023/08/15 11:25:55;;;;;;;2.38;2.17;;;;;;;;;;4964056;28;20253;-65
2023/08/15 11:28:23;;;;;;;3.78;1.95;;;;;;;;;;4968817;28;20225;-64
2023/08/15 11:30:50;;;;;;;2.60;2.28;;;;;;;;;;4968562;28;20963;-65
2023/08/15 11:33:17;;;;;;;2.10;2.00;;;;;;;;;;4968321;28;20233;-64
2023/08/15 11:35:44;;;;;;;1.80;1.70;;;;;;;;;;4968893;28;20211;-65
2023/08/15 11:38:11;;;;;;;5.38;2.55;;;;;;;;;;4968641;28;20221;-64
2023/08/15 11:40:40;;;;;;;4.72;2.38;;;;;;;;;;4968505;28;20215;-65
2023/08/15 11:43:07;;;;;;;4.90;2.35;;;;;;;;;;4968454;28;20265;-65
2023/08/15 11:45:34;;;;;;;4.22;2.30;;;;;;;;;;4967862;28;20226;-64
2023/08/15 11:48:02;;;;;;;2.42;2.20;;;;;;;;;;4968670;28;20218;-65
2023/08/15 11:50:30;;;;;;;4.15;2.40;;;;;;;;;;4968085;28;20217;-65
2023/08/15 11:52:57;;;;;;;2.28;2.03;;;;;;;;;;4967404;28;20207;-65
2023/08/15 11:55:25;;;;;;;2.05;1.95;;;;;;;;;;4968535;28;20217;-65
2023/08/15 11:57:53;;;;;;;2.28;2.17;;;;;;;;;;4968805;28;20660;-65
2023/08/15 12:00:21;;;;;;;2.33;2.13;;;;;;;;;;4967771;28;20688;-65
2023/08/15 12:02:49;;;;;;;2.03;1.92;;;;;;;;;;4968143;28;20317;-65
2023/08/15 12:05:17;;;;;;;2.95;2.33;;;;;;;;;;4966580;28;20214;-65
2023/08/15 12:07:44;;;;;;;2.78;2.05;;;;;;;;;;4968437;28;20210;-65
2023/08/15 12:10:11;;;;;;;2.38;2.30;;;;;;;;;;4967601;28;20507;-65
2023/08/15 12:12:39;;;;;;;4.90;2.20;;;;;;;;;;4967977;28;20214;-65
2023/08/15 12:15:08;;;;;;;2.45;1.95;;;;;;;;;;4967759;28;20280;-65
2023/08/15 12:17:36;;;;;;;4.55;2.20;;;;;;;;;;4968002;28;20225;-65
2023/08/15 12:20:03;;;;;;;2.47;2.20;;;;;;;;;;4967873;28;20214;-64
2023/08/15 12:22:31;;;;;;;2.63;2.45;;;;;;;;;;4967497;28;20210;-65
2023/08/15 12:24:58;;;;;;;2.38;2.13;;;;;;;;;;4966930;28;20213;-64
2023/08/15 12:27:25;;;;;;;2.35;2.13;;;;;;;;;;4968067;28;20495;-65
2023/08/15 12:29:52;;;;;;;2.70;2.60;;;;;;;;;;4967809;28;20234;-64
2023/08/15 12:32:20;;;;;;;4.22;2.15;;;;;;;;;;4967049;28;20214;-64
2023/08/15 12:34:47;;;;;;;2.15;2.05;;;;;;;;;;4967328;28;20479;-65
2023/08/15 12:37:14;;;;;;;6.15;2.85;;;;;;;;;;4968190;28;20229;-64
2023/08/15 12:39:41;;;;;;;2.30;2.20;;;;;;;;;;4967739;28;20218;-65
2023/08/15 12:42:08;;;;;;;2.38;2.28;;;;;;;;;;4967566;28;20210;-65
2023/08/15 12:44:38;;;;;;;2.67;2.47;;;;;;;;;;4967607;28;20207;-65
2023/08/15 12:47:05;;;;;;;2.53;2.33;;;;;;;;;;4967563;28;20902;-65
2023/08/15 12:49:36;;;;;;;4.80;3.63;;;;;;;;;;4966989;28;20221;-65
2023/08/15 12:52:06;;;;;;;3.75;3.45;;;;;;;;;;4967593;28;20320;-65
2023/08/15 12:54:35;;;;;;;2.97;2.50;;;;;;;;;;4967483;28;20231;-65
2023/08/15 12:57:06;;;;;;;3.22;3.08;;;;;;;;;;4967284;28;20590;-65
2023/08/15 12:59:33;;;;;;;3.75;2.70;;;;;;;;;;4967381;28;20605;-65
2023/08/15 13:02:00;;;;;;;3.00;2.38;;;;;;;;;;4966793;28;20221;-65
2023/08/15 13:04:28;;;;;;;3.17;2.40;;;;;;;;;;4967373;28;20209;-66
2023/08/15 13:06:56;;;;;;;2.20;2.10;;;;;;;;;;4967105;28;20792;-66
2023/08/15 13:09:23;;;;;;;4.25;2.70;;;;;;;;;;4967127;28;20742;-66
2023/08/15 13:11:53;;;;;;;3.90;2.50;;;;;;;;;;4967155;28;20213;-65
2023/08/15 13:14:20;;;;;;;3.65;2.92;;;;;;;;;;4966934;28;20237;-66
2023/08/15 13:16:47;;;;;;;4.25;2.65;;;;;;;;;;4956876;28;20198;-66
2023/08/15 13:19:14;;;;;;;2.78;2.60;;;;;;;;;;4967779;28;20210;-65
2023/08/15 13:21:41;;;;;;;3.25;2.97;;;;;;;;;;4967309;28;20206;-66
2023/08/15 13:24:10;;;;;;;2.65;2.33;;;;;;;;;;4965131;28;20202;-65
2023/08/15 13:26:37;;;;;;;2.72;2.63;;;;;;;;;;4966839;28;20213;-65
2023/08/15 13:29:04;;;;;;;4.00;2.92;;;;;;;;;;4967300;28;20234;-65
2023/08/15 13:31:31;;;;;;;2.90;2.70;;;;;;;;;;4966562;28;20436;-65
2023/08/15 13:33:59;;;;;;;3.30;2.78;;;;;;;;;;4967160;28;20611;-65
2023/08/15 13:36:26;;;;;;;3.33;3.10;;;;;;;;;;4967112;28;20907;-65
2023/08/15 13:38:56;;;;;;;3.38;2.80;;;;;;;;;;4967160;28;20214;-62
2023/08/15 13:41:24;;;;;;;4.75;3.58;;;;;;;;;;4967035;28;20206;-62
2023/08/15 13:43:52;;;;;;;4.35;3.90;;;;;;;;;;4967701;28;20214;-62
2023/08/15 13:46:19;;;;;;;4.05;3.85;;;;;;;;;;4966766;28;20241;-61
2023/08/15 13:48:46;;;;;;;4.00;3.60;;;;;;;;;;4967021;28;20225;-62
2023/08/15 13:51:16;;;;;;;3.42;3.05;;;;;;;;;;4967154;28;20211;-61
2023/08/15 13:53:46;;;;;;;3.53;3.22;;;;;;;;;;4967236;28;20242;-61
2023/08/15 13:56:14;;;;;;;3.42;3.13;;;;;;;;;;4964608;28;20217;-61
2023/08/15 13:58:43;;;;;;;3.97;3.10;;;;;;;;;;4965232;28;20202;-62
2023/08/15 14:01:10;;;;;;;6.90;3.10;;;;;;;;;;4966359;28;20586;-62
2023/08/15 14:03:37;;;;;;;4.22;3.10;;;;;;;;;;4967092;28;20218;-61
2023/08/15 14:06:05;;;;;;;3.35;3.22;;;;;;;;;;4966430;28;20210;-61
2023/08/15 14:08:32;;;;;;;3.50;3.33;;;;;;;;;;4967248;28;20219;-61
2023/08/15 14:10:59;;;;;;;3.67;3.42;;;;;;;;;;4966902;28;20226;-62
2023/08/15 14:13:30;;;;;;;4.20;3.80;;;;;;;;;;4966103;28;20459;-61
2023/08/15 14:15:59;;;;;;;3.97;3.55;;;;;;;;;;4967314;28;20294;-62
2023/08/15 14:18:26;;;;;;;4.53;3.25;;;;;;;;;;4970979;28;20210;-61
2023/08/15 14:20:53;;;;;;;4.40;3.45;;;;;;;;;;4969805;28;20549;-61
2023/08/15 14:23:20;;;;;;;4.38;3.50;;;;;;;;;;4967440;28;20651;-61
2023/08/15 14:25:47;;;;;;;4.47;3.30;;;;;;;;;;4970154;28;20217;-61
2023/08/15 14:28:16;;;;;;;4.45;3.35;;;;;;;;;;4969668;28;20234;-61
2023/08/15 14:30:45;;;;;;;3.53;3.28;;;;;;;;;;4969175;28;20390;-61
2023/08/15 14:33:13;;;;;;;3.92;3.28;;;;;;;;;;4968472;28;20207;-61
2023/08/15 14:35:40;;;;;;;3.22;3.13;;;;;;;;;;4969329;28;20230;-61
2023/08/15 14:38:07;;;;;;;4.65;3.67;;;;;;;;;;4969294;28;20579;-61
2023/08/15 14:40:34;;;;;;;3.70;3.25;;;;;;;;;;4967348;28;20225;-61
2023/08/15 14:43:01;;;;;;;3.88;3.53;;;;;;;;;;4964269;28;20776;-62
2023/08/15 14:45:28;;;;;;;3.30;3.10;;;;;;;;;;4960064;28;20218;-61
2023/08/15 14:47:58;;;;;;;2.70;2.50;;;;;;;;;;4968899;28;20210;-61